Главная страница
METAR-TAF:

METAR-TAF

Аэропорты :

Lahaina, Гавайи, США

широта: 21-01N, долгота: 156-38W, высота над уровнем моря: 40 м

METAR: отсутствует

Время: 18:18 (04:18 UTC)

Прогноз

Эта сводка был подготовлена 4 часа и 48 минут назад, в 23:30 UTC
Прогноз действительный с 24-го 00 UTC до 24-го 24 UTC
Ветер 15 Узел от северо-восточный с порывами до 28 Узел
Видимость: 10 км
Отдельные облака на высоте 2500 фута
Отдельные облака на высоте 4000 фута
С 24-го 0600 UTC
Ветер 11 Узел от северо-восточный с порывами до 22 Узел
Видимость: 10 км
Отдельные облака на высоте 2500 фута
Отдельные облака на высоте 4000 фута
С 24-го 2000 UTC
Ветер 15 Узел от северо-восточный с порывами до 25 Узел
Видимость: 10 км
Отдельные облака на высоте 2500 фута
Отдельные облака на высоте 4000 фута

TAF: PHJH 232330Z 2400/2424 05015G28KT P6SM SCT025 SCT040 FM240600 05011G22KT P6SM SCT025 SCT040 FM242000 05015G25KT P6SM SCT025 SCT040 AMD NOT SKED

Метеонаблюдения и прогнозы для более 4000 аэропортов (сводки METAR и TAF).

Имеющиеся станции представлены на карте желтыми и красными точками.

Чтобы увидеть название станции, наведите на нее мышь.

Затем щелкните, чтобы увидеть метеонаблюдения и метеопрогнозы.

Управление картой: чтобы увеличить масштаб, щелкните зеленые кнопки с черным крестиком; чтобы уменьшить масштаб, щелкните зеленую кнопку с тире; для просмотра соседних карт щелкайте зеленые стрелки.


METAR-TAF: